Time;durP1;ratioP1;P1;durP2;ratioP2;P2;SDS_P1;SDS_P2;PMS_P1;PMS_P2;Temp;Humidity;BMP_temperature;BMP_pressure;BME280_temperature;BME280_humidity;BME280_pressure;Samples;Min_cycle;Max_cycle;Signal;HPM_P1;HPM_P2
2022/04/27 00:02:07;;;;;;;;;15.25;12.25;;;;;12.50;75.79;101922.53;5077345;28;45497;-70
2022/04/27 00:04:32;;;;;;;;;11.75;10.75;;;;;12.48;76.35;101918.97;5076896;28;45574;-69
2022/04/27 00:06:58;;;;;;;;;11.00;11.00;;;;;12.47;76.44;101925.13;5077586;28;45449;-70
2022/04/27 00:09:23;;;;;;;;;12.50;10.00;;;;;12.45;76.68;101926.84;5075627;28;45391;-70
2022/04/27 00:11:48;;;;;;;;;14.00;10.50;;;;;12.43;76.62;101932.97;5058073;28;46351;-71
2022/04/27 00:14:14;;;;;;;;;11.50;10.75;;;;;12.40;77.33;101933.78;5057495;28;45300;-70
2022/04/27 00:16:39;;;;;;;;;12.25;9.25;;;;;12.39;76.43;101934.66;5077538;28;45589;-69
2022/04/27 00:19:05;;;;;;;;;13.75;13.75;;;;;12.38;77.92;101924.94;5077522;28;46036;-69
2022/04/27 00:21:30;;;;;;;;;11.25;11.00;;;;;12.32;77.76;101924.81;5076811;28;45448;-70
2022/04/27 00:23:55;;;;;;;;;15.75;14.25;;;;;12.33;77.33;101932.78;5077396;28;45260;-71
2022/04/27 00:26:21;;;;;;;;;17.50;12.75;;;;;12.30;77.66;101930.06;5077517;28;45578;-69
2022/04/27 00:28:46;;;;;;;;;11.50;11.25;;;;;12.28;77.42;101926.47;5077094;28;45421;-69
2022/04/27 00:31:12;;;;;;;;;15.75;13.00;;;;;12.27;77.80;101932.66;5076610;28;45365;-70
2022/04/27 00:33:37;;;;;;;;;16.00;12.75;;;;;12.25;77.81;101925.50;5077149;28;45489;-69
2022/04/27 00:36:03;;;;;;;;;14.00;11.75;;;;;12.22;78.03;101923.72;5077126;28;45207;-69
2022/04/27 00:38:28;;;;;;;;;15.25;13.00;;;;;12.20;78.22;101927.19;5077149;28;45484;-69
2022/04/27 00:40:54;;;;;;;;;14.50;11.50;;;;;12.17;79.53;101935.06;5075850;28;45474;-69
2022/04/27 00:43:35;;;;;;;;;16.75;13.25;;;;;12.13;79.06;101928.78;5076535;28;45319;-69
2022/04/27 00:46:01;;;;;;;;;15.75;12.25;;;;;12.10;78.70;101933.16;5058913;28;46675;-70
2022/04/27 00:48:26;;;;;;;;;16.25;14.75;;;;;12.11;79.23;101924.34;5059155;28;45916;-70
2022/04/27 00:50:52;;;;;;;;;13.50;12.50;;;;;12.10;79.15;101933.16;5076835;28;50365;-70
2022/04/27 00:53:18;;;;;;;;;18.25;12.75;;;;;12.08;78.78;101930.44;5076020;28;45489;-70
2022/04/27 00:55:43;;;;;;;;;19.75;14.00;;;;;12.04;79.49;101929.50;5076995;28;45216;-71
2022/04/27 00:58:10;;;;;;;;;17.75;12.75;;;;;11.99;79.98;101931.16;5076056;28;45281;-70
2022/04/27 01:00:35;;;;;;;;;17.75;14.50;;;;;11.98;79.51;101918.75;5058158;28;45312;-70
2022/04/27 01:03:01;;;;;;;;;17.75;13.00;;;;;11.95;79.69;101923.09;5058601;28;45389;-69
2022/04/27 01:05:29;;;;;;;;;13.75;13.25;;;;;11.93;79.92;101925.72;5075812;28;45712;-70
2022/04/27 01:07:59;;;;;;;;;13.00;13.00;;;;;11.91;80.13;101927.41;5058677;28;46815;-70
2022/04/27 01:10:26;;;;;;;;;13.75;12.25;;;;;11.88;80.87;101915.84;5068338;28;45464;-70
2022/04/27 01:12:52;;;;;;;;;16.25;15.50;;;;;11.86;81.58;101922.88;5077115;28;45536;-69
2022/04/27 01:15:34;;;;;;;;;17.00;12.50;;;;;11.80;81.34;101919.19;5077049;28;45411;-70
2022/04/27 01:17:59;;;;;;;;;12.00;11.25;;;;;11.79;81.12;101925.34;5051978;28;48617;-70
2022/04/27 01:20:44;;;;;;;;;16.75;13.75;;;;;11.77;81.17;101915.56;5075453;28;45290;-71
2022/04/27 01:23:13;;;;;;;;;14.25;12.25;;;;;11.75;81.18;101928.78;5072870;28;45260;-70
2022/04/27 01:25:48;;;;;;;;;19.25;14.50;;;;;11.73;82.52;101922.56;5074812;28;45426;-71
2022/04/27 01:28:15;;;;;;;;;13.00;13.00;;;;;11.69;81.67;101911.88;5075959;28;46402;-71
2022/04/27 01:30:41;;;;;;;;;15.25;13.00;;;;;11.69;83.15;101919.81;5075856;28;45386;-70
2022/04/27 01:33:10;;;;;;;;;16.75;13.00;;;;;11.66;81.74;101911.78;5076400;28;45364;-71
2022/04/27 01:35:36;;;;;;;;;17.50;13.00;;;;;11.62;82.36;101917.88;5076538;28;45473;-70
2022/04/27 01:38:01;;;;;;;;;15.50;14.50;;;;;11.62;82.25;101923.16;5057696;28;46622;-70
2022/04/27 01:40:27;;;;;;;;;18.25;16.25;;;;;11.60;82.43;101917.81;5075856;28;45307;-68
2022/04/27 01:42:52;;;;;;;;;16.75;15.00;;;;;11.58;82.82;101926.59;5076220;28;45557;-69
2022/04/27 01:45:17;;;;;;;;;16.50;16.50;;;;;11.54;83.13;101912.38;5076480;28;45358;-70
2022/04/27 01:47:43;;;;;;;;;18.00;14.50;;;;;11.50;83.04;101916.72;5058392;28;45745;-70
2022/04/27 01:50:08;;;;;;;;;17.50;15.75;;;;;11.47;82.64;101914.00;5075575;28;45319;-70
2022/04/27 01:55:19;;;;;;;;;15.50;14.75;;;;;11.43;83.73;101919.16;5076083;28;45486;-69
2022/04/27 01:57:45;;;;;;;;;16.75;16.00;;;;;11.41;83.74;101908.56;5075877;28;46817;-70
2022/04/27 02:00:11;;;;;;;;;16.00;12.75;;;;;11.41;83.73;101913.84;5075351;28;45533;-70
2022/04/27 02:02:36;;;;;;;;;18.75;16.75;;;;;11.38;84.96;101921.69;5076115;28;45544;-71
2022/04/27 02:05:04;;;;;;;;;20.50;16.00;;;;;11.35;84.68;101934.84;5075973;28;45541;-69
2022/04/27 02:07:30;;;;;;;;;19.25;16.75;;;;;11.32;84.68;101937.41;5075792;28;46575;-69
2022/04/27 02:09:55;;;;;;;;;20.75;17.50;;;;;11.32;84.45;101936.50;5069531;28;45438;-70
2022/04/27 02:12:21;;;;;;;;;18.00;16.75;;;;;11.30;84.84;101943.53;5075375;28;45539;-70
2022/04/27 02:14:46;;;;;;;;;18.50;17.00;;;;;11.28;86.03;101938.19;5076278;28;45439;-69
2022/04/27 02:17:11;;;;;;;;;19.25;16.75;;;;;11.23;85.71;101942.44;5075703;28;50482;-69
2022/04/27 02:19:37;;;;;;;;;21.75;19.00;;;;;11.19;85.89;101946.78;5075604;28;45319;-69
2022/04/27 02:22:04;;;;;;;;;21.00;16.00;;;;;11.17;86.23;101937.91;5057401;28;45398;-69
2022/04/27 02:24:29;;;;;;;;;18.50;15.50;;;;;11.16;86.41;101944.03;5075715;28;45328;-70
2022/04/27 02:26:55;;;;;;;;;20.50;16.00;;;;;11.12;86.59;101933.34;5040393;28;47627;-69
2022/04/27 02:29:22;;;;;;;;;16.25;15.25;;;;;11.10;86.71;101941.25;5075688;28;45466;-70
2022/04/27 02:31:47;;;;;;;;;18.25;18.00;;;;;11.08;87.59;101935.03;5075231;28;45234;-69
2022/04/27 02:34:12;;;;;;;;;20.50;20.50;;;;;11.06;87.76;101933.19;5074599;28;45548;-69
2022/04/27 02:36:38;;;;;;;;;17.25;16.00;;;;;11.04;87.57;101926.97;5077506;28;45334;-71
2022/04/27 02:39:03;;;;;;;;;18.50;15.00;;;;;11.01;87.74;101933.94;5078974;28;50056;-70
2022/04/27 02:41:29;;;;;;;;;21.50;18.00;;;;;10.97;88.74;101937.38;5078885;28;45335;-70
2022/04/27 02:43:55;;;;;;;;;18.25;16.00;;;;;10.95;88.33;101933.78;5078798;28;45644;-69
2022/04/27 02:46:20;;;;;;;;;22.50;16.00;;;;;10.92;88.67;101927.53;5078891;28;46481;-70
2022/04/27 02:54:14;;;;;;;;;20.50;20.50;;;;;10.87;89.78;101924.78;5078394;28;45536;-69
2022/04/27 02:56:40;;;;;;;;;22.75;21.00;;;;;10.85;90.02;101915.00;5078896;28;45421;-71
2022/04/27 02:59:05;;;;;;;;;24.00;21.75;;;;;10.85;90.20;101920.28;5078544;28;46838;-69
2022/04/27 03:01:31;;;;;;;;;24.25;17.75;;;;;10.83;90.52;101930.81;5078858;28;45395;-71
2022/04/27 03:03:56;;;;;;;;;22.75;20.50;;;;;10.79;90.12;101923.66;5077944;28;45553;-69
2022/04/27 03:06:21;;;;;;;;;24.50;21.75;;;;;10.80;90.71;101919.25;5073914;28;47481;-69
2022/04/27 03:08:47;;;;;;;;;24.25;21.00;;;;;10.78;90.77;101919.22;5092767;27;49762;-69
2022/04/27 03:11:12;;;;;;;;;23.50;20.00;;;;;10.77;90.74;101917.44;5078574;27;45495;-70
2022/04/27 03:13:37;;;;;;;;;24.50;22.00;;;;;10.74;91.25;101912.97;5078417;27;45473;-71
2022/04/27 03:16:03;;;;;;;;;28.75;24.00;;;;;10.74;91.10;101917.34;5078224;27;51852;-70
2022/04/27 03:18:29;;;;;;;;;29.00;24.75;;;;;10.72;91.36;101913.78;5078371;27;45439;-69
2022/04/27 03:20:54;;;;;;;;;26.50;19.75;;;;;10.70;92.03;101911.06;5077415;27;45287;-70
2022/04/27 03:23:19;;;;;;;;;28.75;23.00;;;;;10.67;92.38;101912.75;5077144;28;45578;-70
2022/04/27 03:25:45;;;;;;;;;28.00;22.00;;;;;10.65;93.41;101915.38;5078166;27;51075;-70
2022/04/27 03:28:11;;;;;;;;;24.00;20.00;;;;;10.64;92.53;101910.91;5077800;28;45337;-70
2022/04/27 03:30:36;;;;;;;;;29.50;22.25;;;;;10.64;93.27;101916.19;5076591;28;45340;-70
2022/04/27 03:33:01;;;;;;;;;24.50;22.50;;;;;10.63;92.86;101921.44;5076870;27;45639;-70
2022/04/27 03:35:27;;;;;;;;;23.50;21.25;;;;;10.62;93.37;101917.03;5078000;27;45303;-71
2022/04/27 03:37:52;;;;;;;;;29.00;24.75;;;;;10.61;95.47;101915.25;5093798;27;48525;-70
2022/04/27 03:40:21;;;;;;;;;28.50;23.00;;;;;10.58;94.36;101915.13;5076451;27;45454;-70
2022/04/27 03:42:47;;;;;;;;;26.25;21.00;;;;;10.55;94.08;101907.16;5077766;28;45549;-69
2022/04/27 03:45:13;;;;;;;;;29.50;24.50;;;;;10.54;94.63;101907.97;5093438;27;45744;-70
2022/04/27 03:47:38;;;;;;;;;29.75;24.50;;;;;10.53;94.51;101912.34;5077469;27;45428;-70
2022/04/27 03:50:04;;;;;;;;;28.25;23.25;;;;;10.53;94.59;101906.19;5078140;27;45322;-69
2022/04/27 03:52:30;;;;;;;;;28.50;24.00;;;;;10.53;94.73;101906.19;5077290;27;45609;-70
2022/04/27 03:55:00;;;;;;;;;29.25;26.00;;;;;10.51;95.13;101908.78;5077691;27;46489;-69
2022/04/27 03:57:26;;;;;;;;;25.00;24.25;;;;;10.51;95.29;101913.19;5077504;27;45291;-70
2022/04/27 03:59:51;;;;;;;;;28.25;23.50;;;;;10.48;95.71;101911.34;5076858;27;45551;-70
2022/04/27 04:02:17;;;;;;;;;32.00;27.50;;;;;10.47;96.23;101913.09;5077040;27;52888;-70
2022/04/27 04:04:42;;;;;;;;;29.00;25.25;;;;;10.47;95.72;101918.38;5076881;27;45687;-71
2022/04/27 04:07:08;;;;;;;;;28.25;25.00;;;;;10.44;96.75;101913.00;5077205;28;50680;-70
2022/04/27 04:09:33;;;;;;;;;31.75;27.00;;;;;10.40;97.44;101916.41;5073463;28;45430;-71
2022/04/27 04:11:58;;;;;;;;;26.75;23.75;;;;;10.40;97.15;101920.78;5058861;28;45552;-70
2022/04/27 04:14:24;;;;;;;;;26.75;25.00;;;;;10.38;97.79;101918.09;5076839;28;60148;-72
2022/04/27 04:16:49;;;;;;;;;33.50;28.50;;;;;10.38;97.37;101922.47;5077257;28;45585;-71
2022/04/27 04:19:15;;;;;;;;;27.75;25.75;;;;;10.38;97.02;101926.00;5075876;28;45306;-69
2022/04/27 04:21:40;;;;;;;;;35.00;28.25;;;;;10.38;97.74;101928.66;5042192;28;45477;-69
2022/04/27 04:24:05;;;;;;;;;28.75;26.50;;;;;10.37;99.76;101925.97;5077302;28;47193;-71
2022/04/27 04:29:15;;;;;;;;;29.50;26.75;;;;;10.31;98.75;101918.78;5076625;28;45434;-71
2022/04/27 04:31:40;;;;;;;;;34.75;33.25;;;;;10.31;98.79;101928.44;5077252;28;45516;-70
2022/04/27 04:34:05;;;;;;;;;27.50;24.25;;;;;10.30;99.04;101924.91;5076551;28;55846;-72
2022/04/27 04:36:31;;;;;;;;;38.50;31.50;;;;;10.28;99.98;101923.97;5076103;28;45439;-70
2022/04/27 04:38:57;;;;;;;;;32.00;27.00;;;;;10.29;99.33;101940.72;5077099;28;45636;-71
2022/04/27 04:41:22;;;;;;;;;29.00;24.25;;;;;10.27;99.51;101929.19;5076925;28;45422;-70
2022/04/27 04:43:48;;;;;;;;;31.75;29.50;;;;;10.27;99.98;101950.31;5076582;28;45500;-70
2022/04/27 04:46:13;;;;;;;;;35.50;30.00;;;;;10.26;100.00;101935.31;5076532;28;49374;-72
2022/04/27 04:48:39;;;;;;;;;30.25;26.50;;;;;10.25;100.00;101946.75;5076498;28;45492;-69
2022/04/27 04:51:04;;;;;;;;;34.00;30.75;;;;;10.25;100.00;101936.19;5058320;28;46170;-70
2022/04/27 04:53:30;;;;;;;;;31.75;29.50;;;;;10.25;100.00;101946.75;5076532;28;45858;-71
2022/04/27 04:55:56;;;;;;;;;31.75;29.75;;;;;10.25;100.00;101949.38;5076813;28;45415;-70
2022/04/27 04:58:21;;;;;;;;;34.00;32.50;;;;;10.25;100.00;101954.66;5071840;28;45362;-71
2022/04/27 05:00:48;;;;;;;;;35.50;30.25;;;;;10.25;100.00;101946.75;5076662;28;45429;-71
2022/04/27 05:03:14;;;;;;;;;32.50;28.00;;;;;10.26;100.00;101957.34;5076655;28;46765;-71
2022/04/27 05:05:40;;;;;;;;;35.00;28.25;;;;;10.25;100.00;101952.03;5200516;22;45232;-72
2022/04/27 05:08:07;;;;;;;;;37.25;32.00;;;;;10.26;100.00;101957.34;5097662;27;45294;-70
2022/04/27 05:10:33;;;;;;;;;32.50;26.75;;;;;10.27;100.00;101961.75;5096724;27;45268;-71
2022/04/27 05:12:59;;;;;;;;;28.50;28.50;;;;;10.27;100.00;101966.16;5117955;27;46074;-70
2022/04/27 05:15:24;;;;;;;;;38.00;31.00;;;;;10.29;100.00;101965.34;5097011;27;45378;-71
2022/04/27 05:17:50;;;;;;;;;38.50;31.75;;;;;10.29;100.00;101965.34;5115681;27;45373;-71
2022/04/27 05:20:15;;;;;;;;;35.25;28.25;;;;;10.29;100.00;101973.28;5099366;27;45370;-71
2022/04/27 05:22:41;;;;;;;;;44.50;36.00;;;;;10.28;100.00;101966.22;5098945;27;48291;-72
2022/04/27 05:25:10;;;;;;;;;33.25;31.50;;;;;10.33;100.00;101966.31;5111205;27;45338;-71
2022/04/27 05:27:37;;;;;;;;;36.00;28.75;;;;;10.33;100.00;101969.84;5115579;27;45429;-70
2022/04/27 05:32:47;;;;;;;;;38.50;33.25;;;;;10.39;100.00;101977.09;5110330;27;45519;-71
2022/04/27 05:35:13;;;;;;;;;31.50;29.75;;;;;10.41;100.00;101980.66;5109075;27;45756;-71
2022/04/27 05:37:39;;;;;;;;;42.00;35.00;;;;;10.43;100.00;101982.50;5107936;27;45369;-72
2022/04/27 05:40:06;;;;;;;;;35.50;34.75;;;;;10.43;100.00;101979.84;5114173;27;45413;-71
2022/04/27 05:42:32;;;;;;;;;37.75;28.50;;;;;10.46;100.00;101990.50;5108125;27;46415;-71
2022/04/27 05:44:58;;;;;;;;;45.00;35.25;;;;;10.46;100.00;101974.66;5115244;27;45445;-72
2022/04/27 05:47:25;;;;;;;;;38.00;31.25;;;;;10.51;100.00;101987.13;5116356;27;45456;-72
2022/04/27 05:49:51;;;;;;;;;39.00;33.00;;;;;10.53;100.00;101991.59;5109466;27;45407;-72
2022/04/27 05:52:17;;;;;;;;;43.00;34.50;;;;;10.57;100.00;101990.84;5097173;27;47883;-71
2022/04/27 05:54:42;;;;;;;;;43.00;35.25;;;;;10.61;100.00;101995.38;5113789;27;45602;-72
2022/04/27 05:57:07;;;;;;;;;45.50;32.75;;;;;10.62;100.00;101990.97;5111323;27;45310;-71
2022/04/27 05:59:33;;;;;;;;;37.00;33.50;;;;;10.68;100.00;102001.72;5111718;27;45507;-72
2022/04/27 06:01:59;;;;;;;;;34.00;29.75;;;;;10.70;100.00;102002.63;5112970;27;46443;-71
2022/04/27 06:04:26;;;;;;;;;31.25;27.00;;;;;10.74;100.00;102012.44;5094810;27;46588;-71
2022/04/27 06:06:54;;;;;;;;;36.75;31.25;;;;;10.77;100.00;102011.66;5111928;27;45442;-70
2022/04/27 06:09:20;;;;;;;;;36.25;30.00;;;;;10.79;100.00;102007.31;5115342;27;45592;-69
2022/04/27 06:11:45;;;;;;;;;38.75;34.25;;;;;10.79;100.00;102010.84;5110943;27;45655;-71
2022/04/27 06:14:10;;;;;;;;;36.25;30.00;;;;;10.83;100.00;102018.00;5119042;27;58110;-69
2022/04/27 06:16:36;;;;;;;;;40.00;34.25;;;;;10.84;100.00;102010.97;5115598;27;45433;-69
2022/04/27 06:19:02;;;;;;;;;38.25;35.50;;;;;10.87;100.00;102017.25;5118297;27;45540;-71
2022/04/27 06:21:31;;;;;;;;;34.00;28.00;;;;;10.90;100.00;102027.91;5115830;27;47421;-71
2022/04/27 06:23:57;;;;;;;;;37.50;34.50;;;;;10.94;100.00;102019.22;5110355;27;45492;-70
2022/04/27 06:26:22;;;;;;;;;39.50;35.25;;;;;10.97;100.00;102026.31;5108361;27;45508;-70
2022/04/27 06:28:48;;;;;;;;;38.75;33.50;;;;;11.00;100.00;102029.06;5113115;27;45216;-70
2022/04/27 06:31:13;;;;;;;;;29.25;27.75;;;;;11.06;100.00;102033.63;5115948;27;45580;-70
2022/04/27 06:33:38;;;;;;;;;40.75;32.75;;;;;11.09;100.00;102039.91;5117532;27;45333;-70
2022/04/27 06:36:04;;;;;;;;;37.75;30.00;;;;;11.13;100.00;102032.94;5118495;27;45507;-71
2022/04/27 06:38:29;;;;;;;;;42.00;35.00;;;;;11.15;100.00;102042.72;5119172;27;45419;-70
2022/04/27 06:40:55;;;;;;;;;33.75;30.50;;;;;11.19;100.00;102038.41;5118747;27;47248;-70
2022/04/27 06:43:20;;;;;;;;;40.25;31.50;;;;;11.23;100.00;102045.56;5101840;27;45411;-70
2022/04/27 06:45:45;;;;;;;;;43.00;34.25;;;;;11.24;100.00;102042.97;5120065;27;45417;-71
2022/04/27 06:48:11;;;;;;;;;44.25;37.00;;;;;11.27;100.00;102035.09;5114945;27;45486;-70
2022/04/27 06:50:37;;;;;;;;;36.00;32.75;;;;;11.31;100.00;102041.38;5115714;27;46314;-69
2022/04/27 06:53:04;;;;;;;;;44.75;34.00;;;;;11.35;100.00;102037.09;5106258;27;45398;-69
2022/04/27 06:58:51;;;;;;;;;39.75;34.25;;;;;11.44;100.00;102042.59;5103101;27;45371;-70
2022/04/27 07:01:19;;;;;;;;;35.00;30.50;;;;;11.49;100.00;102038.34;5119211;27;56481;-70
2022/04/27 07:03:45;;;;;;;;;38.00;34.00;;;;;11.54;100.00;102047.28;5099780;27;45781;-70
2022/04/27 07:06:11;;;;;;;;;37.00;33.50;;;;;11.59;100.00;102053.59;5095315;27;45778;-71
2022/04/27 07:08:37;;;;;;;;;34.25;33.75;;;;;11.63;100.00;102057.22;5092860;27;45507;-70
2022/04/27 07:11:02;;;;;;;;;40.50;33.50;;;;;11.71;100.00;102066.25;5111354;27;72752;-71
2022/04/27 07:13:29;;;;;;;;;43.75;36.25;;;;;11.75;100.00;102062.84;5091703;27;45420;-71
2022/04/27 07:16:00;;;;;;;;;36.25;29.75;;;;;11.79;100.00;102060.31;5111072;27;45526;-73
2022/04/27 07:18:27;;;;;;;;;47.75;35.50;;;;;11.87;100.00;102062.28;5110567;27;45535;-72
2022/04/27 07:20:52;;;;;;;;;37.25;33.75;;;;;11.92;100.00;102061.53;5112491;27;45874;-72
2022/04/27 07:23:18;;;;;;;;;42.25;33.50;;;;;12.01;100.00;102061.78;5110458;27;46526;-72
2022/04/27 07:25:43;;;;;;;;;39.50;35.00;;;;;12.09;100.00;102061.97;5112743;27;61522;-73
2022/04/27 07:28:09;;;;;;;;;43.75;35.75;;;;;12.15;100.00;102061.22;5111761;27;45584;-72
2022/04/27 07:30:34;;;;;;;;;35.75;33.75;;;;;12.19;100.00;102069.25;5113993;27;66369;-71
2022/04/27 07:32:59;;;;;;;;;40.25;34.75;;;;;12.23;100.00;102065.84;5113091;27;45476;-71
2022/04/27 07:35:25;;;;;;;;;42.50;37.25;;;;;12.27;100.00;102070.34;5112070;27;46112;-72
2022/04/27 07:37:50;;;;;;;;;40.75;34.75;;;;;12.30;100.00;102066.88;5115831;27;51983;-70
2022/04/27 07:40:15;;;;;;;;;37.25;34.00;;;;;12.36;100.00;102064.38;5107110;27;50697;-72
2022/04/27 07:42:41;;;;;;;;;47.00;36.50;;;;;12.42;100.00;102064.53;5114168;27;45532;-71
2022/04/27 07:45:07;;;;;;;;;46.00;37.00;;;;;12.48;100.00;102075.25;5111074;27;45623;-71
2022/04/27 07:47:43;;;;;;;;;42.00;36.50;;;;;12.54;99.75;102078.03;5109358;27;45554;-73
2022/04/27 07:50:11;;;;;;;;;48.25;37.00;;;;;12.59;99.33;102076.41;5114179;27;46602;-69
2022/04/27 07:52:37;;;;;;;;;49.00;38.50;;;;;12.64;99.18;102072.97;5115506;27;45603;-72
2022/04/27 07:55:03;;;;;;;;;46.25;36.25;;;;;12.70;99.67;102071.34;5112567;27;45651;-71
2022/04/27 07:57:30;;;;;;;;;48.25;36.25;;;;;12.77;99.42;102081.19;5109074;27;45687;-70
2022/04/27 07:59:56;;;;;;;;;45.50;36.75;;;;;12.84;98.40;102077.84;5109319;27;46533;-71
2022/04/27 08:02:21;;;;;;;;;40.75;35.25;;;;;12.90;98.96;102078.84;5111194;27;45551;-69
2022/04/27 08:04:46;;;;;;;;;37.25;34.25;;;;;12.95;99.13;102074.53;5109341;27;54624;-72
2022/04/27 08:07:12;;;;;;;;;41.00;34.50;;;;;13.01;98.90;102074.66;5111845;27;60779;-70
2022/04/27 08:09:37;;;;;;;;;46.75;37.75;;;;;13.07;98.04;102075.66;5110620;27;58646;-71
2022/04/27 08:12:02;;;;;;;;;45.50;37.00;;;;;13.12;97.55;102075.78;5112384;27;59917;-70
2022/04/27 08:14:28;;;;;;;;;45.50;38.25;;;;;13.15;97.78;102077.56;5110361;27;45514;-71
2022/04/27 08:16:54;;;;;;;;;37.50;35.50;;;;;13.19;97.15;102071.47;5110294;27;62034;-71
2022/04/27 08:19:20;;;;;;;;;43.50;37.25;;;;;13.21;97.43;102075.03;5115702;27;46222;-73
2022/04/27 08:21:45;;;;;;;;;41.50;35.25;;;;;13.25;97.26;102072.53;5115361;27;45453;-71
2022/04/27 08:24:11;;;;;;;;;37.00;34.25;;;;;13.31;97.57;102083.25;5113267;27;45318;-72
2022/04/27 08:26:36;;;;;;;;;40.00;35.00;;;;;13.37;97.71;102079.84;5109318;27;45559;-72
2022/04/27 08:29:02;;;;;;;;;42.75;35.00;;;;;13.42;97.62;102072.84;5095097;27;46291;-73
2022/04/27 08:31:28;;;;;;;;;45.75;36.00;;;;;13.49;98.05;102081.84;5106766;27;66895;-71
2022/04/27 08:33:53;;;;;;;;;42.00;35.50;;;;;13.56;97.17;102089.03;5108939;27;45471;-71
2022/04/27 08:36:18;;;;;;;;;45.00;35.50;;;;;13.63;97.31;102082.97;5109110;27;45218;-71
2022/04/27 08:38:44;;;;;;;;;44.75;35.00;;;;;13.67;96.88;102081.28;5107811;27;53009;-72
2022/04/27 08:41:09;;;;;;;;;41.50;34.75;;;;;13.72;96.50;102082.25;5113003;27;45221;-71
2022/04/27 08:43:35;;;;;;;;;42.75;35.25;;;;;13.78;96.48;102087.66;5112455;27;45468;-71
2022/04/27 08:46:03;;;;;;;;;41.25;33.50;;;;;13.84;97.14;102095.75;5111544;27;45342;-70
2022/04/27 08:48:29;;;;;;;;;43.75;34.50;;;;;13.93;97.66;102095.03;5107649;27;45958;-72
2022/04/27 08:50:54;;;;;;;;;45.50;36.00;;;;;13.99;96.00;102082.72;5115461;27;45388;-71
2022/04/27 08:53:20;;;;;;;;;38.00;32.50;;;;;14.07;95.53;102082.88;5114051;27;67823;-71
2022/04/27 08:55:45;;;;;;;;;43.00;36.00;;;;;14.11;95.28;102075.00;5111015;27;52346;-72
2022/04/27 08:58:17;;;;;;;;;43.50;37.00;;;;;14.18;95.57;102075.97;5106069;27;45662;-72
2022/04/27 09:00:44;;;;;;;;;44.00;34.50;;;;;14.23;95.64;102074.28;5104146;27;45532;-71
2022/04/27 09:03:32;;;;;;;;;39.50;34.75;;;;;14.32;95.29;102082.38;5109785;27;45405;-72
2022/04/27 09:06:00;;;;;;;;;41.50;35.00;;;;;14.39;95.72;102084.28;5108257;27;45928;-73
2022/04/27 09:08:36;;;;;;;;;40.75;35.00;;;;;14.46;95.18;102082.59;5113122;27;46551;-71
2022/04/27 09:11:18;;;;;;;;;44.75;35.25;;;;;14.54;95.20;102075.69;5095835;27;45723;-71
2022/04/27 09:14:01;;;;;;;;;47.50;35.75;;;;;14.64;95.69;102082.91;5112968;27;45449;-70
2022/04/27 09:22:07;;;;;;;;;41.75;36.25;;;;;14.93;94.95;102069.13;5111163;27;45452;-71
2022/04/27 09:24:55;;;;;;;;;44.75;35.75;;;;;15.04;94.66;102075.47;5110254;27;45649;-71
2022/04/27 09:27:25;;;;;;;;;42.50;35.25;;;;;15.13;94.41;102072.94;5119012;22;45572;-72
2022/04/27 09:30:03;;;;;;;;;47.25;36.75;;;;;15.23;94.41;102073.91;5084031;27;45618;-72
2022/04/27 09:32:29;;;;;;;;;41.75;35.00;;;;;15.34;93.84;102074.94;5083102;27;45910;-71
2022/04/27 09:34:55;;;;;;;;;43.25;36.50;;;;;15.47;94.45;102083.94;5078211;27;45507;-72
2022/04/27 09:37:24;;;;;;;;;41.00;34.25;;;;;15.60;93.17;102079.63;5086809;27;45539;-70
2022/04/27 09:40:11;;;;;;;;;41.00;33.00;;;;;15.69;93.16;102075.34;5085318;27;46883;-72
2022/04/27 09:42:38;;;;;;;;;43.00;36.25;;;;;15.78;92.29;102071.88;5090002;27;46035;-71
2022/04/27 09:45:13;;;;;;;;;49.50;39.00;;;;;15.88;92.04;102080.84;5079852;27;45349;-73
2022/04/27 09:47:50;;;;;;;;;40.00;32.25;;;;;15.94;92.13;102065.81;5082191;27;45445;-72
2022/04/27 09:50:16;;;;;;;;;47.50;37.50;;;;;16.05;91.24;102065.91;5078790;27;46036;-72
2022/04/27 09:52:43;;;;;;;;;42.25;35.00;;;;;16.12;90.45;102073.06;5087866;27;45288;-73
2022/04/27 09:55:10;;;;;;;;;46.75;37.25;;;;;16.19;90.64;102066.91;5084311;27;45543;-71
2022/04/27 09:57:38;;;;;;;;;39.25;34.50;;;;;16.26;90.39;102061.63;5081690;27;45551;-71
2022/04/27 10:00:04;;;;;;;;;41.25;35.25;;;;;16.37;89.96;102059.94;5089741;27;46393;-73
2022/04/27 10:02:31;;;;;;;;;41.00;35.00;;;;;16.45;89.21;102063.50;5081008;27;45487;-70
2022/04/27 10:04:59;;;;;;;;;43.50;36.25;;;;;16.56;89.25;102053.81;5083933;27;45437;-71
2022/04/27 10:07:25;;;;;;;;;47.25;37.00;;;;;16.67;89.68;102053.88;5082963;27;45400;-72
2022/04/27 10:09:51;;;;;;;;;47.75;36.50;;;;;16.74;87.84;102042.41;5079546;27;46617;-71
2022/04/27 10:12:16;;;;;;;;;41.25;36.00;;;;;16.77;88.68;102048.63;5186631;22;49167;-72
2022/04/27 10:14:42;;;;;;;;;46.00;36.75;;;;;16.85;88.35;102043.34;5069885;27;45475;-71
2022/04/27 10:17:09;;;;;;;;;47.50;37.00;;;;;16.96;87.39;102036.28;5074517;27;45432;-73
2022/04/27 10:19:35;;;;;;;;;58.25;41.00;;;;;17.07;87.55;102030.97;5069001;27;45536;-71
2022/04/27 10:22:02;;;;;;;;;49.25;36.00;;;;;17.20;87.29;102018.53;5072292;27;50016;-74
2022/04/27 10:24:33;;;;;;;;;38.00;32.75;;;;;17.33;86.88;102023.03;5070287;27;45446;-72
2022/04/27 10:27:14;;;;;;;;;44.50;38.00;;;;;17.44;86.50;102023.06;5072282;27;45656;-71
2022/04/27 10:29:39;;;;;;;;;47.25;35.75;;;;;17.50;85.65;102023.06;5053921;28;47162;-70
2022/04/27 10:32:05;;;;;;;;;51.00;36.25;;;;;17.57;84.45;102008.81;5071118;27;66995;-71
2022/04/27 10:34:32;;;;;;;;;45.50;36.50;;;;;17.61;84.29;102021.28;5071618;27;45501;-71
2022/04/27 10:36:58;;;;;;;;;37.75;33.00;;;;;17.63;83.08;102008.84;5072630;27;45555;-73
2022/04/27 10:39:29;;;;;;;;;37.50;34.25;;;;;17.75;83.60;101997.31;5069498;28;45844;-73
2022/04/27 10:41:56;;;;;;;;;41.75;33.00;;;;;17.84;83.68;101999.97;5074514;27;45448;-72
2022/04/27 10:44:22;;;;;;;;;36.75;33.00;;;;;17.92;82.81;102005.31;5074960;27;45500;-72
2022/04/27 11:00:16;;;;;;;;;38.75;33.00;;;;;18.41;80.90;101998.09;5074841;27;45494;-71
2022/04/27 11:06:19;;;;;;;;;33.50;31.50;;;;;18.68;79.03;101991.78;5074403;27;45559;-74
2022/04/27 11:09:10;;;;;;;;;36.25;30.50;;;;;18.83;76.84;101969.44;5074911;27;45453;-73
2022/04/27 11:11:55;;;;;;;;;36.00;32.00;;;;;19.03;76.42;101972.91;5045708;28;45609;-73
2022/04/27 11:14:26;;;;;;;;;32.00;30.75;;;;;19.20;72.32;101977.25;5072595;28;45771;-73
2022/04/27 11:16:52;;;;;;;;;35.25;30.00;;;;;19.27;73.61;101979.88;5078704;28;45525;-72
2022/04/27 11:19:17;;;;;;;;;29.50;28.50;;;;;19.36;74.54;101978.94;5077103;28;46020;-72
2022/04/27 11:21:43;;;;;;;;;31.75;28.50;;;;;19.54;73.79;101977.91;5073560;28;45444;-74
2022/04/27 11:24:11;;;;;;;;;36.25;33.00;;;;;19.77;72.96;101964.38;5073290;28;46609;-71
2022/04/27 11:26:43;;;;;;;;;36.00;31.25;;;;;19.92;72.50;101974.97;5075666;28;45402;-72
2022/04/27 11:29:11;;;;;;;;;31.50;28.50;;;;;19.98;69.27;101964.16;5074012;28;45347;-72
2022/04/27 11:31:36;;;;;;;;;31.75;29.25;;;;;20.06;69.79;101967.66;5076579;28;45462;-72
2022/04/27 11:34:20;;;;;;;;;32.00;28.33;;;;;20.15;70.01;101954.16;5059712;28;46202;-73
2022/04/27 11:36:46;;;;;;;;;39.67;31.33;;;;;20.15;68.82;101958.63;5074887;28;45212;-70
2022/04/27 11:39:23;;;;;;;;;28.67;27.67;;;;;20.13;68.92;101961.34;5073241;28;45295;-72
2022/04/27 11:41:58;;;;;;;;;33.67;27.33;;;;;20.17;68.68;101954.13;5073684;27;45492;-73
2022/04/27 11:44:25;;;;;;;;;28.00;25.33;;;;;20.32;65.96;101955.75;5073618;28;46454;-72
2022/04/27 11:46:50;;;;;;;;;33.00;27.67;;;;;20.53;66.82;101950.16;5075673;28;45310;-71